Time;durP1;ratioP1;P1;durP2;ratioP2;P2;SDS_P1;SDS_P2;PMS_P1;PMS_P2;Temp;Humidity;BMP_temperature;BMP_pressure;BME280_temperature;BME280_humidity;BME280_pressure;Samples;Min_cycle;Max_cycle;Signal;HPM_P1;HPM_P2
2023/03/07 00:01:02;;;;;;;28.63;15.00;;;0.90;1.00;;;;;;6186355;23;20087;-84
2023/03/07 00:03:51;;;;;;;30.42;15.52;;;0.90;1.00;;;;;;6184880;23;20028;-84
2023/03/07 00:06:39;;;;;;;29.85;14.95;;;0.90;1.00;;;;;;6187787;23;20107;-85
2023/03/07 00:09:26;;;;;;;30.38;15.00;;;0.90;1.00;;;;;;6187491;23;20095;-85
2023/03/07 00:12:14;;;;;;;25.30;14.80;;;0.80;1.00;;;;;;6186737;23;20040;-84
2023/03/07 00:15:01;;;;;;;35.58;15.27;;;0.80;1.00;;;;;;6186725;23;20100;-85
2023/03/07 00:17:51;;;;;;;29.08;15.50;;;0.90;1.00;;;;;;6186932;23;20025;-85
2023/03/07 00:20:40;;;;;;;26.58;14.48;;;0.90;1.00;;;;;;6185276;23;20025;-84
2023/03/07 00:23:32;;;;;;;26.80;14.48;;;0.90;1.00;;;;;;6185711;23;20147;-85
2023/03/07 00:26:24;;;;;;;28.13;14.77;;;0.90;1.00;;;;;;6185867;23;20436;-85
2023/03/07 00:29:12;;;;;;;28.02;15.30;;;0.90;1.00;;;;;;6188069;23;20110;-85
2023/03/07 00:31:59;;;;;;;32.35;15.45;;;0.90;1.00;;;;;;6167634;23;20411;-85
2023/03/07 00:34:48;;;;;;;24.15;14.27;;;1.00;1.00;;;;;;6185686;23;20298;-84
2023/03/07 00:37:36;;;;;;;27.38;14.13;;;0.90;1.00;;;;;;6186677;23;20025;-84
2023/03/07 00:40:23;;;;;;;25.77;14.10;;;1.00;1.00;;;;;;6185792;23;20351;-85
2023/03/07 00:43:10;;;;;;;26.42;14.65;;;1.00;1.00;;;;;;6190961;23;20036;-84
2023/03/07 00:45:58;;;;;;;27.70;14.55;;;1.00;1.00;;;;;;6185395;23;20021;-85
2023/03/07 00:48:46;;;;;;;25.52;14.25;;;1.00;1.00;;;;;;6186291;23;20028;-84
2023/03/07 00:51:36;;;;;;;28.13;13.93;;;1.00;1.00;;;;;;6187067;23;20044;-84
2023/03/07 00:54:23;;;;;;;27.50;14.75;;;1.00;1.00;;;;;;6186861;23;20029;-84
2023/03/07 00:57:10;;;;;;;26.10;14.05;;;0.90;1.00;;;;;;6185954;23;20036;-83
2023/03/07 01:00:00;;;;;;;25.45;13.88;;;0.90;1.00;;;;;;6188822;23;20032;-83
2023/03/07 01:02:49;;;;;;;28.80;14.50;;;0.90;1.00;;;;;;6184975;23;20021;-85
2023/03/07 01:05:40;;;;;;;24.33;13.27;;;1.00;1.00;;;;;;6185032;23;20428;-86
2023/03/07 01:08:27;;;;;;;24.98;12.90;;;1.00;1.00;;;;;;6187649;23;20025;-86
2023/03/07 01:11:14;;;;;;;25.88;13.57;;;1.00;1.00;;;;;;6190005;23;20052;-86
2023/03/07 01:14:04;;;;;;;29.05;14.45;;;0.90;1.00;;;;;;6188410;23;20029;-83
2023/03/07 01:16:52;;;;;;;24.67;13.60;;;1.00;1.00;;;;;;6191164;23;20033;-83
2023/03/07 01:19:42;;;;;;;27.77;14.07;;;1.00;1.00;;;;;;6194299;23;20032;-84
2023/03/07 01:22:30;;;;;;;29.10;13.60;;;1.00;1.00;;;;;;6191981;23;20025;-86
2023/03/07 01:25:19;;;;;;;26.23;13.77;;;1.00;1.00;;;;;;6189853;23;20025;-87
2023/03/07 01:28:09;;;;;;;24.70;12.88;;;1.00;1.00;;;;;;6184980;23;20021;-85
2023/03/07 01:31:02;;;;;;;23.88;12.80;;;1.10;1.00;;;;;;6186863;23;20029;-84
2023/03/07 01:33:51;;;;;;;26.70;13.65;;;1.10;1.00;;;;;;6188890;23;20037;-84
2023/03/07 01:36:38;;;;;;;26.33;13.50;;;1.10;1.00;;;;;;6187507;23;20333;-83
2023/03/07 01:39:27;;;;;;;23.77;13.60;;;1.10;1.00;;;;;;6187986;23;20081;-84
2023/03/07 01:42:14;;;;;;;26.35;14.80;;;1.10;1.00;;;;;;6188159;23;20028;-85
2023/03/07 01:45:11;;;;;;;31.20;15.35;;;1.10;1.00;;;;;;6186907;23;20028;-84
2023/03/07 01:47:58;;;;;;;25.77;13.10;;;1.20;1.00;;;;;;6186688;23;20325;-84
2023/03/07 01:50:46;;;;;;;25.45;14.02;;;1.20;1.00;;;;;;6184756;23;20100;-84
2023/03/07 01:53:33;;;;;;;24.77;13.90;;;1.20;1.00;;;;;;6192460;23;20025;-86
2023/03/07 01:56:21;;;;;;;25.40;13.95;;;1.20;1.00;;;;;;6191321;23;20029;-86
2023/03/07 01:59:09;;;;;;;24.35;13.82;;;1.20;1.00;;;;;;6191500;23;20029;-86
2023/03/07 02:02:01;;;;;;;25.77;14.50;;;1.20;1.00;;;;;;6193961;23;20036;-83
2023/03/07 02:05:14;;;;;;;27.40;12.80;;;1.20;1.00;;;;;;6193028;23;20108;-84
2023/03/07 02:08:03;;;;;;;25.50;13.27;;;1.20;1.00;;;;;;6195647;23;20021;-86
2023/03/07 02:10:51;;;;;;;26.25;14.38;;;1.20;1.00;;;;;;6196486;23;20033;-85
2023/03/07 02:13:41;;;;;;;23.55;13.93;;;1.20;1.00;;;;;;6189671;23;20036;-85
2023/03/07 02:16:28;;;;;;;26.17;14.55;;;1.20;1.00;;;;;;6190479;23;20032;-83
2023/03/07 02:19:25;;;;;;;25.25;13.38;;;1.20;1.00;;;;;;6187358;23;20107;-86
2023/03/07 02:22:16;;;;;;;28.45;13.93;;;1.20;1.00;;;;;;6191239;23;20090;-85
2023/03/07 02:25:17;;;;;;;26.48;13.82;;;1.10;1.00;;;;;;6201802;23;20044;-85
2023/03/07 02:28:06;;;;;;;26.48;13.75;;;1.10;1.00;;;;;;6202343;23;20025;-85
2023/03/07 02:30:54;;;;;;;29.25;14.52;;;1.10;1.00;;;;;;6203289;23;20056;-84
2023/03/07 02:33:41;;;;;;;28.33;13.65;;;1.10;1.00;;;;;;6195601;23;20445;-84
2023/03/07 02:36:33;;;;;;;26.13;14.38;;;1.10;1.00;;;;;;6184011;23;20052;-82
2023/03/07 02:39:22;;;;;;;23.10;12.38;;;1.10;1.00;;;;;;6188176;23;20052;-84
2023/03/07 02:42:20;;;;;;;24.13;12.73;;;1.10;1.00;;;;;;6184492;23;20029;-83
2023/03/07 02:45:10;;;;;;;30.30;15.07;;;1.10;1.00;;;;;;6185555;23;20025;-84
2023/03/07 02:47:58;;;;;;;27.60;15.07;;;1.10;1.00;;;;;;6184262;23;20021;-83
2023/03/07 02:50:47;;;;;;;23.27;13.07;;;1.00;1.00;;;;;;6182455;23;20480;-86
2023/03/07 02:53:36;;;;;;;26.55;15.20;;;1.00;1.00;;;;;;6182236;23;20029;-84
2023/03/07 02:56:23;;;;;;;26.13;14.82;;;1.00;1.00;;;;;;6183806;23;20033;-84
2023/03/07 02:59:10;;;;;;;27.17;14.20;;;1.00;1.00;;;;;;6186159;23;20028;-84
2023/03/07 03:01:58;;;;;;;28.13;15.10;;;0.90;1.00;;;;;;6185754;23;20028;-83
2023/03/07 03:04:51;;;;;;;25.08;14.57;;;1.00;1.00;;;;;;6161747;23;20028;-83
2023/03/07 03:07:38;;;;;;;30.30;16.05;;;1.00;1.00;;;;;;6186758;23;20021;-85
2023/03/07 03:10:26;;;;;;;29.85;15.02;;;0.90;1.00;;;;;;6186595;23;20029;-85
2023/03/07 03:13:13;;;;;;;26.67;13.98;;;0.90;1.00;;;;;;6187118;23;20029;-85
2023/03/07 03:16:03;;;;;;;28.70;14.55;;;0.80;1.00;;;;;;6187225;23;20040;-85
2023/03/07 03:18:51;;;;;;;31.23;15.60;;;0.70;1.00;;;;;;6185940;23;20397;-85
2023/03/07 03:21:38;;;;;;;30.48;15.73;;;0.80;1.00;;;;;;6188354;23;20351;-85
2023/03/07 03:24:26;;;;;;;30.27;15.50;;;0.80;1.00;;;;;;6199098;23;20032;-83
2023/03/07 03:27:18;;;;;;;28.77;14.60;;;0.80;1.00;;;;;;6195874;23;20032;-83
2023/03/07 03:30:10;;;;;;;24.03;13.80;;;0.90;1.00;;;;;;6176085;23;20025;-85
2023/03/07 03:32:59;;;;;;;25.25;14.70;;;0.90;1.00;;;;;;6189345;23;20029;-83
2023/03/07 03:35:48;;;;;;;27.58;14.23;;;0.90;1.00;;;;;;6207067;23;20040;-84
2023/03/07 03:38:36;;;;;;;30.35;15.20;;;0.90;1.00;;;;;;6198713;23;20025;-85
2023/03/07 03:41:23;;;;;;;28.45;14.73;;;0.90;1.00;;;;;;6184942;23;20025;-83
2023/03/07 03:44:12;;;;;;;35.70;15.65;;;1.00;1.00;;;;;;6186524;23;20091;-83
2023/03/07 03:46:59;;;;;;;30.00;15.27;;;0.90;1.00;;;;;;6185948;23;20032;-84
2023/03/07 03:49:47;;;;;;;31.17;16.50;;;1.00;1.00;;;;;;6184675;23;20413;-84
2023/03/07 03:52:37;;;;;;;26.23;15.23;;;1.00;1.00;;;;;;6184034;23;20036;-84
2023/03/07 03:55:24;;;;;;;29.48;15.45;;;1.00;1.00;;;;;;6183395;23;20428;-84
2023/03/07 03:58:11;;;;;;;30.63;16.55;;;1.00;1.00;;;;;;6186832;23;20021;-83
2023/03/07 04:01:06;;;;;;;30.25;15.95;;;1.00;1.00;;;;;;6187554;23;20025;-84
2023/03/07 04:03:54;;;;;;;31.83;15.57;;;1.00;1.00;;;;;;6184988;23;20039;-84
2023/03/07 04:06:41;;;;;;;33.67;16.30;;;1.00;1.00;;;;;;6186806;23;20617;-83
2023/03/07 04:09:30;;;;;;;27.52;15.90;;;1.10;1.00;;;;;;6184525;23;20413;-84
2023/03/07 04:12:21;;;;;;;33.95;16.92;;;1.10;1.00;;;;;;6193516;23;20036;-82
2023/03/07 04:15:09;;;;;;;29.88;14.07;;;1.10;1.00;;;;;;6197899;23;20025;-86
2023/03/07 04:17:56;;;;;;;26.42;14.73;;;1.10;1.00;;;;;;6195589;23;20033;-84
2023/03/07 04:20:46;;;;;;;28.38;14.50;;;1.10;1.00;;;;;;6192986;23;20025;-85
2023/03/07 04:23:33;;;;;;;26.95;14.88;;;1.00;1.00;;;;;;6192909;23;20052;-87
2023/03/07 04:26:21;;;;;;;32.65;16.35;;;1.00;1.00;;;;;;6187657;23;20056;-84
2023/03/07 04:29:09;;;;;;;26.83;15.25;;;1.00;1.00;;;;;;6186770;23;20077;-84
2023/03/07 04:31:56;;;;;;;32.72;16.80;;;1.00;1.00;;;;;;6189292;23;20036;-83
2023/03/07 04:34:43;;;;;;;33.53;15.88;;;0.90;1.00;;;;;;6185743;23;20036;-84
2023/03/07 04:37:32;;;;;;;31.27;16.95;;;0.90;1.00;;;;;;6189417;23;20369;-84
2023/03/07 04:40:22;;;;;;;33.47;16.45;;;0.90;1.00;;;;;;6185519;23;20024;-84
2023/03/07 04:43:09;;;;;;;28.67;15.05;;;0.90;1.00;;;;;;6186308;23;20032;-84
2023/03/07 04:45:59;;;;;;;24.98;14.10;;;0.90;1.00;;;;;;6185171;23;20056;-84
2023/03/07 04:48:46;;;;;;;26.40;14.30;;;0.90;1.00;;;;;;6186821;23;20370;-83
2023/03/07 04:51:34;;;;;;;28.02;15.38;;;0.80;1.00;;;;;;6188545;23;20025;-86
2023/03/07 04:54:23;;;;;;;24.92;13.48;;;0.80;1.00;;;;;;6187971;23;20110;-85
2023/03/07 04:57:10;;;;;;;29.27;14.98;;;0.80;1.00;;;;;;6187370;23;20036;-86
2023/03/07 05:00:12;;;;;;;28.55;14.40;;;0.80;1.00;;;;;;6185322;23;20123;-86
2023/03/07 05:03:02;;;;;;;26.73;14.02;;;0.80;1.00;;;;;;6188716;23;20036;-85
2023/03/07 05:05:50;;;;;;;24.27;13.77;;;0.80;1.00;;;;;;6188385;23;20107;-85
2023/03/07 05:08:40;;;;;;;25.00;13.75;;;0.90;1.00;;;;;;6186520;23;20052;-84
2023/03/07 05:11:27;;;;;;;24.27;14.18;;;0.90;99.90;;;;;;6187201;23;20021;-86
2023/03/07 05:14:14;;;;;;;25.15;13.40;;;0.90;99.90;;;;;;6187351;23;20025;-85
2023/03/07 05:17:02;;;;;;;27.73;13.30;;;0.90;99.90;;;;;;6187715;23;20029;-85
2023/03/07 05:19:49;;;;;;;24.75;14.23;;;0.90;99.90;;;;;;6186210;23;20029;-85
2023/03/07 05:22:36;;;;;;;27.02;14.18;;;1.00;99.90;;;;;;6186889;23;20104;-84
2023/03/07 05:25:24;;;;;;;30.00;14.18;;;1.00;99.90;;;;;;6185331;23;20112;-84
2023/03/07 05:28:15;;;;;;;23.27;13.55;;;0.90;99.90;;;;;;6184272;23;20025;-84
2023/03/07 05:31:03;;;;;;;27.20;13.85;;;0.90;99.90;;;;;;6187133;23;20086;-85
2023/03/07 05:33:51;;;;;;;27.10;13.05;;;0.90;99.90;;;;;;6186090;23;20032;-83
2023/03/07 05:36:38;;;;;;;25.38;12.70;;;0.90;99.90;;;;;;6184371;23;20029;-82
2023/03/07 05:39:26;;;;;;;22.83;12.68;;;0.90;99.90;;;;;;6184607;23;20036;-84
2023/03/07 05:42:14;;;;;;;23.60;13.43;;;0.90;99.90;;;;;;6192103;23;20036;-85
2023/03/07 05:45:04;;;;;;;24.85;13.38;;;1.00;99.90;;;;;;6188136;23;20040;-83
2023/03/07 05:47:51;;;;;;;22.60;13.25;;;1.00;99.90;;;;;;6188165;23;20036;-83
2023/03/07 05:50:44;;;;;;;23.50;12.75;;;0.90;99.90;;;;;;6184861;23;20032;-86
2023/03/07 05:53:34;;;;;;;22.65;12.57;;;0.90;99.90;;;;;;6188701;23;20033;-86
2023/03/07 05:56:21;;;;;;;26.08;12.50;;;0.90;99.90;;;;;;6186944;23;20040;-85
2023/03/07 05:59:11;;;;;;;20.15;11.98;;;0.90;99.90;;;;;;6189703;23;20029;-85
2023/03/07 06:01:58;;;;;;;26.65;13.80;;;0.90;99.90;;;;;;6195256;23;20024;-89
2023/03/07 06:04:46;;;;;;;23.08;13.13;;;0.90;99.90;;;;;;6203995;23;20029;-90
2023/03/07 06:07:33;;;;;;;19.77;11.75;;;0.90;99.90;;;;;;6201356;23;20031;-90
2023/03/07 06:10:25;;;;;;;24.85;12.48;;;1.00;99.90;;;;;;6204091;23;20009;-88
2023/03/07 06:13:20;;;;;;;26.02;12.35;;;1.10;99.90;;;;;;6211432;23;20017;-85
2023/03/07 06:16:08;;;;;;;21.65;12.02;;;1.10;99.90;;;;;;6211862;23;20009;-87
2023/03/07 06:18:58;;;;;;;21.10;11.70;;;1.10;99.90;;;;;;6207398;23;20025;-88
2023/03/07 06:21:45;;;;;;;23.35;12.48;;;1.10;99.90;;;;;;6207984;23;20128;-89
2023/03/07 06:24:32;;;;;;;19.35;11.65;;;1.10;99.90;;;;;;6204657;23;20056;-88
2023/03/07 06:27:19;;;;;;;21.77;11.93;;;1.10;99.90;;;;;;6204693;23;20025;-86
2023/03/07 06:30:45;;;;;;;24.40;12.68;;;1.20;99.90;;;;;;6199862;23;20020;-84
2023/03/07 06:33:33;;;;;;;19.98;11.32;;;1.20;99.90;;;;;;6185904;23;20025;-83
2023/03/07 06:36:23;;;;;;;20.33;11.25;;;1.30;99.90;;;;;;6184366;23;20025;-87
2023/03/07 06:39:20;;;;;;;28.48;11.45;;;1.30;99.90;;;;;;6188237;23;20029;-87
2023/03/07 06:42:44;;;;;;;21.38;12.00;;;1.30;99.90;;;;;;6186414;23;20032;-85
2023/03/07 06:45:33;;;;;;;21.15;12.27;;;1.30;99.90;;;;;;6186045;23;20132;-86
2023/03/07 06:49:15;;;;;;;27.83;14.13;;;1.30;99.90;;;;;;6183508;23;20056;-86
2023/03/07 07:04:19;;;;;;;19.23;10.30;;;1.50;99.90;;;;;;6095434;23;20054;-85
2023/03/07 07:07:14;;;;;;;21.98;11.45;;;1.60;99.90;;;;;;6074600;23;20121;-84
2023/03/07 07:10:19;;;;;;;22.77;11.05;;;1.60;99.90;;;;;;6095660;23;20026;-84
2023/03/07 08:55:40;;;;;;;;;;;;;;;;;;;;;
2023/03/07 09:38:38;;;;;;;;;;;;;;;;;;;;;
2023/03/07 10:07:03;;;;;;;18.85;9.77;;;3.30;99.90;;;;;;6039840;23;20422;-86
2023/03/07 10:35:50;;;;;;;19.45;10.00;;;3.60;99.90;;;;;;5954425;24;20020;-90
2023/03/07 14:06:15;;;;;;;9.30;6.20;;;9.20;21.20;;;;;;6066800;23;20367;-89
2023/03/07 14:10:42;;;;;;;;;;;;;;;;;;;;;
2023/03/07 14:41:34;;;;;;;;;;;;;;;;;;;;;
2023/03/07 14:45:38;;;;;;;9.82;5.30;;;8.00;7.70;;;;;;5049048;28;20045;-88
2023/03/07 14:49:33;;;;;;;;;;;;;;;;;;;;;
2023/03/07 14:53:15;;;;;;;7.32;4.78;;;9.90;3.50;;;;;;4861912;29;20029;-87
2023/03/07 15:16:43;;;;;;;;;;;;;;;;;;;;;
2023/03/07 16:11:27;;;;;;;9.38;5.60;;;8.30;1.00;;;;;;6321934;22;20023;-87
2023/03/07 16:14:25;;;;;;;12.32;6.75;;;8.70;1.00;;;;;;6317284;22;20022;-87
2023/03/07 16:17:38;;;;;;;16.30;7.07;;;8.80;1.00;;;;;;6314813;22;20110;-89
2023/03/07 16:25:02;;;;;;;12.95;6.55;;;8.50;1.00;;;;;;6192153;23;20028;-90
2023/03/07 16:27:55;;;;;;;14.38;7.30;;;8.80;1.00;;;;;;6219382;22;20050;-86
2023/03/07 16:30:44;;;;;;;14.70;6.85;;;8.30;1.00;;;;;;6325321;22;20109;-85
2023/03/07 16:33:49;;;;;;;13.77;7.13;;;8.30;1.00;;;;;;6319164;22;20037;-87
2023/03/07 16:36:37;;;;;;;14.60;7.68;;;8.10;1.00;;;;;;6314662;22;20042;-86
2023/03/07 16:39:24;;;;;;;15.45;7.85;;;8.00;1.00;;;;;;6316165;22;20027;-85
2023/03/07 16:42:21;;;;;;;12.52;7.70;;;7.60;1.00;;;;;;6316478;22;20023;-89
2023/03/07 16:45:24;;;;;;;11.93;7.18;;;7.00;1.00;;;;;;6317505;22;20057;-87
2023/03/07 16:48:13;;;;;;;10.52;5.82;;;6.10;1.00;;;;;;6317987;22;20031;-88
2023/03/07 16:51:02;;;;;;;12.05;7.68;;;5.50;1.00;;;;;;6316077;22;20129;-88
2023/03/07 16:53:50;;;;;;;15.93;9.15;;;5.10;1.00;;;;;;6316975;22;20124;-88
2023/03/07 16:56:40;;;;;;;14.27;7.15;;;4.80;1.00;;;;;;6315297;22;20033;-88
2023/03/07 16:59:36;;;;;;;12.27;7.72;;;4.50;1.00;;;;;;6317404;22;20337;-91
2023/03/07 17:02:26;;;;;;;14.23;7.90;;;4.30;1.00;;;;;;6319015;22;20395;-89
2023/03/07 17:05:34;;;;;;;22.67;9.18;;;4.20;1.00;;;;;;6336891;22;20084;-88
2023/03/07 17:08:24;;;;;;;19.33;9.85;;;4.00;1.00;;;;;;6301956;22;20173;-88
2023/03/07 17:11:24;;;;;;;22.42;9.68;;;3.90;1.00;;;;;;6310682;22;20085;-88
2023/03/07 17:14:13;;;;;;;17.25;8.70;;;3.80;11.10;;;;;;6313622;22;20481;-88
2023/03/07 17:17:00;;;;;;;14.52;7.22;;;3.70;2.60;;;;;;6313274;22;20422;-90
2023/03/07 17:19:48;;;;;;;15.48;8.07;;;3.60;4.70;;;;;;6320120;22;20023;-89
2023/03/07 17:22:36;;;;;;;20.80;7.97;;;3.50;6.50;;;;;;6310129;22;20034;-89
2023/03/07 17:25:24;;;;;;;15.38;7.25;;;3.50;7.60;;;;;;6309213;22;20019;-86
2023/03/07 17:28:21;;;;;;;17.00;8.65;;;3.50;8.70;;;;;;6309853;22;20433;-87
2023/03/07 17:31:17;;;;;;;14.02;8.40;;;3.50;10.80;;;;;;6307678;22;20023;-88
2023/03/07 17:34:10;;;;;;;17.02;9.43;;;3.40;11.90;;;;;;6312863;22;20064;-87
2023/03/07 17:36:59;;;;;;;18.92;10.88;;;3.40;13.70;;;;;;6308670;22;20035;-88
2023/03/07 17:39:48;;;;;;;17.38;8.10;;;3.40;14.30;;;;;;6310264;22;20039;-88
2023/03/07 17:42:37;;;;;;;13.45;8.85;;;3.30;17.60;;;;;;6311706;22;20026;-89
2023/03/07 17:45:24;;;;;;;19.90;7.75;;;3.30;19.50;;;;;;6311185;22;20160;-87
2023/03/07 17:48:17;;;;;;;14.25;8.63;;;3.10;22.20;;;;;;6309302;22;20099;-90
2023/03/07 17:51:13;;;;;;;15.13;7.60;;;3.10;24.50;;;;;;6307113;22;20023;-89
2023/03/07 17:54:03;;;;;;;21.05;8.50;;;3.00;26.60;;;;;;6307795;22;20030;-90
2023/03/07 17:56:51;;;;;;;16.95;7.72;;;2.90;28.40;;;;;;6312133;22;20055;-87
2023/03/07 17:59:38;;;;;;;15.65;8.15;;;2.90;30.00;;;;;;6317554;22;20019;-87
2023/03/07 18:02:26;;;;;;;15.63;8.45;;;2.80;33.00;;;;;;6323735;22;20023;-88
2023/03/07 18:05:13;;;;;;;19.73;9.80;;;2.80;35.20;;;;;;6326101;22;20027;-87
2023/03/07 18:08:03;;;;;;;14.73;8.35;;;2.80;38.50;;;;;;6322063;22;20030;-87
2023/03/07 18:10:51;;;;;;;18.08;8.80;;;2.70;40.00;;;;;;6334429;22;20038;-88
2023/03/07 18:13:39;;;;;;;14.27;8.57;;;2.70;45.30;;;;;;6300504;22;20024;-84
2023/03/07 18:16:28;;;;;;;15.35;8.63;;;2.70;47.80;;;;;;6265993;23;20043;-88
2023/03/07 18:19:16;;;;;;;18.65;9.88;;;2.60;51.50;;;;;;6252084;23;20028;-88
2023/03/07 18:22:14;;;;;;;19.27;10.32;;;2.70;54.40;;;;;;6251222;23;20031;-88
2023/03/07 18:25:03;;;;;;;19.90;10.27;;;2.60;57.40;;;;;;6255982;22;20043;-89
2023/03/07 18:27:51;;;;;;;18.80;9.15;;;2.70;59.90;;;;;;6247873;23;20020;-89
2023/03/07 18:30:38;;;;;;;19.17;10.57;;;2.80;60.60;;;;;;6249881;23;20024;-89
2023/03/07 18:33:27;;;;;;;17.90;9.05;;;2.90;60.30;;;;;;6250068;23;20028;-88
2023/03/07 18:36:15;;;;;;;19.50;9.68;;;2.90;60.80;;;;;;6254324;22;20091;-88
2023/03/07 18:39:03;;;;;;;21.60;10.82;;;3.00;62.80;;;;;;6246889;23;20091;-88
2023/03/07 18:41:51;;;;;;;16.48;8.70;;;3.00;65.50;;;;;;6248752;23;20105;-86
2023/03/07 18:44:39;;;;;;;17.90;9.98;;;3.10;62.60;;;;;;6263942;23;20390;-87
2023/03/07 18:47:27;;;;;;;22.17;11.77;;;3.20;61.10;;;;;;6260312;22;20055;-87
2023/03/07 18:50:14;;;;;;;19.23;8.38;;;3.20;59.50;;;;;;6254186;23;20047;-89
2023/03/07 18:53:04;;;;;;;14.20;7.85;;;3.10;59.80;;;;;;6266470;23;20024;-89
2023/03/07 18:55:52;;;;;;;15.45;9.20;;;3.00;62.40;;;;;;6255259;23;20028;-88
2023/03/07 18:58:45;;;;;;;16.23;8.48;;;2.90;62.90;;;;;;6248976;23;20020;-88
2023/03/07 19:01:36;;;;;;;16.75;8.25;;;2.90;66.90;;;;;;6246529;23;20423;-90
2023/03/07 19:04:23;;;;;;;16.95;9.10;;;3.00;66.10;;;;;;6249009;22;20016;-90
2023/03/07 19:07:12;;;;;;;16.35;8.68;;;3.00;64.30;;;;;;6246061;23;20102;-89
2023/03/07 19:10:00;;;;;;;14.02;8.50;;;3.10;64.50;;;;;;6250373;23;20032;-85
2023/03/07 19:12:47;;;;;;;18.23;9.50;;;3.10;64.70;;;;;;6247575;23;20028;-89
2023/03/07 19:15:37;;;;;;;16.05;8.93;;;3.20;62.80;;;;;;6246773;23;20103;-87
2023/03/07 19:18:25;;;;;;;15.15;8.90;;;3.20;63.50;;;;;;6245802;23;20030;-87
2023/03/07 19:21:21;;;;;;;17.63;10.02;;;3.20;63.20;;;;;;6248276;22;20048;-90
2023/03/07 19:24:12;;;;;;;17.35;9.65;;;3.20;63.10;;;;;;6246104;23;20048;-88
2023/03/07 19:26:59;;;;;;;15.85;8.70;;;3.10;63.40;;;;;;6247079;23;20412;-89
2023/03/07 19:29:47;;;;;;;13.73;8.13;;;3.00;68.60;;;;;;6246007;23;20139;-87
2023/03/07 19:32:40;;;;;;;16.10;8.38;;;2.90;69.90;;;;;;6248198;23;20152;-86
2023/03/07 19:35:29;;;;;;;16.08;9.45;;;2.90;72.70;;;;;;6244909;23;20103;-88
2023/03/07 19:38:21;;;;;;;16.23;9.70;;;2.90;76.70;;;;;;6249427;22;20024;-91
2023/03/07 19:41:16;;;;;;;19.27;9.88;;;2.90;80.10;;;;;;6256702;23;20020;-89
2023/03/07 19:44:10;;;;;;;21.58;10.00;;;2.80;81.20;;;;;;6248284;23;20035;-87
2023/03/07 19:46:58;;;;;;;19.48;9.52;;;2.90;81.30;;;;;;6246988;22;20505;-87
2023/03/07 19:49:48;;;;;;;18.85;10.38;;;2.90;81.80;;;;;;6243286;23;20043;-88
2023/03/07 19:52:36;;;;;;;16.98;9.77;;;2.90;80.10;;;;;;6248175;22;20497;-89
2023/03/07 20:00:45;;;;;;;24.13;10.43;;;2.70;89.30;;;;;;6264525;22;20370;-84
2023/03/07 20:03:35;;;;;;;22.48;10.45;;;2.60;91.40;;;;;;6253845;22;20383;-84
2023/03/07 20:06:28;;;;;;;21.70;11.18;;;2.50;92.90;;;;;;6267939;22;20020;-82
2023/03/07 20:09:16;;;;;;;17.42;9.93;;;2.50;95.50;;;;;;6264064;22;20033;-86
2023/03/07 20:12:09;;;;;;;16.92;8.70;;;2.60;94.80;;;;;;6255411;22;20020;-82
2023/03/07 20:14:56;;;;;;;14.50;8.73;;;2.60;96.20;;;;;;6274481;22;20034;-86
2023/03/07 20:17:45;;;;;;;13.73;8.00;;;2.70;94.30;;;;;;6275065;22;20026;-83
2023/03/07 20:20:38;;;;;;;14.02;8.55;;;2.80;92.90;;;;;;6272630;22;20038;-83
2023/03/07 20:23:25;;;;;;;19.40;8.30;;;2.90;88.40;;;;;;6276268;22;20023;-85
2023/03/07 20:26:26;;;;;;;12.95;6.65;;;2.90;83.60;;;;;;6273937;22;20073;-82
2023/03/07 20:29:14;;;;;;;10.27;6.95;;;2.90;82.30;;;;;;6274998;22;20027;-83
2023/03/07 20:32:02;;;;;;;11.55;7.38;;;2.90;77.30;;;;;;6255215;22;20085;-83
2023/03/07 20:34:52;;;;;;;10.63;6.82;;;2.90;74.20;;;;;;6255215;22;20157;-84
2023/03/07 20:37:42;;;;;;;10.88;6.55;;;3.00;72.10;;;;;;6274814;22;20027;-84
2023/03/07 20:40:29;;;;;;;17.17;7.25;;;3.00;68.80;;;;;;6254694;22;20335;-83
2023/03/07 20:43:18;;;;;;;12.93;6.82;;;3.00;65.80;;;;;;6256018;22;20023;-82
2023/03/07 20:46:08;;;;;;;9.60;6.32;;;3.10;62.50;;;;;;6278848;22;20027;-83
2023/03/07 20:49:00;;;;;;;10.40;6.65;;;3.10;59.40;;;;;;6277829;22;20221;-82
2023/03/07 20:51:55;;;;;;;10.43;7.23;;;3.20;56.20;;;;;;6276353;22;20040;-84
2023/03/07 20:54:46;;;;;;;10.20;6.63;;;3.30;52.80;;;;;;6278144;22;20509;-81
2023/03/07 20:57:37;;;;;;;12.68;7.15;;;3.40;46.70;;;;;;6256330;22;20110;-83
2023/03/07 21:00:25;;;;;;;12.43;6.93;;;3.40;44.60;;;;;;6276614;22;20031;-82
2023/03/07 21:03:15;;;;;;;11.63;6.35;;;3.40;41.60;;;;;;6275985;22;20120;-84
2023/03/07 21:06:04;;;;;;;11.25;6.78;;;3.30;36.90;;;;;;6254468;22;20038;-82
2023/03/07 21:08:51;;;;;;;11.13;6.50;;;3.40;38.50;;;;;;6255510;22;20035;-86
2023/03/07 21:11:50;;;;;;;11.57;7.10;;;3.30;35.70;;;;;;6256621;22;20117;-83
2023/03/07 21:14:38;;;;;;;11.18;6.90;;;3.30;34.90;;;;;;6280813;22;20037;-82
2023/03/07 21:17:30;;;;;;;10.57;6.80;;;3.20;33.30;;;;;;6255744;22;20030;-81
2023/03/07 21:20:17;;;;;;;13.18;6.20;;;3.20;34.50;;;;;;6258474;22;20495;-84
2023/03/07 21:23:14;;;;;;;11.45;5.93;;;3.20;32.80;;;;;;6277114;22;20480;-83
2023/03/07 21:26:08;;;;;;;10.65;6.75;;;3.20;34.20;;;;;;6236467;22;20089;-84
2023/03/07 21:28:57;;;;;;;11.82;6.90;;;3.20;32.30;;;;;;6256128;22;20039;-80
2023/03/07 21:31:44;;;;;;;13.00;7.28;;;3.10;32.90;;;;;;6278514;22;20066;-83
2023/03/07 21:34:34;;;;;;;10.27;6.20;;;3.10;31.50;;;;;;6282590;22;20492;-84
2023/03/07 21:37:26;;;;;;;13.38;7.13;;;3.00;31.90;;;;;;6295002;22;20020;-83
2023/03/07 21:40:14;;;;;;;12.32;7.43;;;3.00;32.80;;;;;;6294241;22;20019;-84
2023/03/07 21:43:02;;;;;;;14.85;7.32;;;3.00;33.50;;;;;;6291585;22;20085;-83
2023/03/07 21:45:49;;;;;;;11.68;7.20;;;2.90;34.20;;;;;;6287996;22;20055;-82
2023/03/07 21:48:38;;;;;;;10.80;6.80;;;2.90;35.80;;;;;;6282968;22;20531;-80
2023/03/07 21:51:25;;;;;;;15.43;7.53;;;2.90;36.30;;;;;;6279009;22;20031;-82
2023/03/07 21:54:12;;;;;;;14.13;8.02;;;2.90;36.90;;;;;;6277515;22;20051;-82
2023/03/07 21:57:03;;;;;;;14.35;7.95;;;2.90;38.00;;;;;;6274164;22;20051;-83
2023/03/07 21:59:50;;;;;;;16.30;7.93;;;2.90;38.90;;;;;;6276306;22;20020;-82
2023/03/07 22:02:39;;;;;;;15.02;7.70;;;2.90;36.60;;;;;;6276979;22;20446;-83
2023/03/07 22:05:29;;;;;;;17.45;8.73;;;2.90;37.70;;;;;;6254010;22;20024;-81
2023/03/07 22:08:19;;;;;;;13.80;8.30;;;3.00;39.40;;;;;;6246106;23;20024;-83
2023/03/07 22:11:08;;;;;;;14.27;8.35;;;2.90;39.40;;;;;;6248283;23;20368;-82
2023/03/07 22:13:56;;;;;;;22.88;8.93;;;2.90;40.00;;;;;;6246106;23;20323;-81
2023/03/07 22:16:44;;;;;;;17.02;9.40;;;3.00;40.90;;;;;;6247488;22;20028;-80
2023/03/07 22:19:31;;;;;;;15.48;8.95;;;3.00;41.90;;;;;;6246350;23;20040;-83
2023/03/07 22:22:19;;;;;;;16.65;8.80;;;3.00;42.50;;;;;;6255992;23;20008;-84
2023/03/07 22:25:07;;;;;;;17.00;10.07;;;3.00;42.00;;;;;;6261709;23;20128;-82
2023/03/07 22:27:57;;;;;;;18.27;9.77;;;3.00;43.10;;;;;;6249581;23;20418;-84
2023/03/07 22:30:50;;;;;;;16.65;9.93;;;3.00;43.20;;;;;;6244861;23;20020;-82
2023/03/07 22:33:40;;;;;;;20.83;9.20;;;2.90;44.70;;;;;;6246679;23;20023;-84
2023/03/07 22:36:28;;;;;;;19.23;9.90;;;2.90;45.70;;;;;;6244965;23;20024;-80
2023/03/07 22:39:17;;;;;;;16.58;8.88;;;2.80;46.90;;;;;;6245335;23;20024;-82
2023/03/07 22:42:05;;;;;;;17.80;9.45;;;2.80;49.50;;;;;;6245465;23;20396;-82
2023/03/07 22:44:56;;;;;;;18.45;10.02;;;2.80;49.80;;;;;;6246198;23;20466;-82
2023/03/07 22:47:43;;;;;;;22.67;9.48;;;2.80;53.10;;;;;;6247425;22;20028;-83
2023/03/07 22:50:30;;;;;;;19.80;9.82;;;2.70;53.70;;;;;;6245125;23;20078;-84
2023/03/07 22:53:23;;;;;;;17.08;9.90;;;2.70;55.60;;;;;;6244647;23;20334;-83
2023/03/07 22:56:24;;;;;;;18.83;10.40;;;2.70;56.60;;;;;;6248126;22;20024;-84
2023/03/07 22:59:11;;;;;;;22.50;10.52;;;2.70;59.50;;;;;;6245671;23;20024;-83
2023/03/07 23:02:01;;;;;;;18.85;10.25;;;2.70;60.10;;;;;;6249963;23;20047;-84
2023/03/07 23:04:51;;;;;;;18.13;9.98;;;2.60;62.60;;;;;;6247779;22;20343;-82
2023/03/07 23:07:39;;;;;;;18.77;10.55;;;2.60;62.40;;;;;;6249341;23;20408;-81
2023/03/07 23:10:30;;;;;;;19.45;11.20;;;2.60;65.40;;;;;;6265123;23;20432;-84
2023/03/07 23:13:17;;;;;;;19.83;11.00;;;2.60;68.30;;;;;;6256322;22;20443;-82
2023/03/07 23:16:14;;;;;;;19.48;10.32;;;2.60;72.00;;;;;;6247545;23;20023;-83
2023/03/07 23:19:03;;;;;;;21.60;11.27;;;2.50;73.00;;;;;;6247245;23;20081;-83
2023/03/07 23:21:51;;;;;;;20.13;11.27;;;2.60;74.50;;;;;;6245723;23;20035;-82
2023/03/07 23:24:40;;;;;;;19.83;9.95;;;2.50;79.40;;;;;;6248379;23;20020;-82
2023/03/07 23:27:31;;;;;;;20.45;10.68;;;2.50;82.50;;;;;;6249738;23;20031;-83
2023/03/07 23:30:19;;;;;;;19.50;12.10;;;2.50;85.20;;;;;;6256707;23;20032;-81
2023/03/07 23:33:06;;;;;;;20.95;11.85;;;2.40;88.70;;;;;;6250715;23;20106;-83
2023/03/07 23:35:58;;;;;;;18.80;11.02;;;2.50;90.40;;;;;;6251795;23;20072;-83
2023/03/07 23:38:45;;;;;;;21.88;11.63;;;2.40;92.60;;;;;;6250011;23;20024;-83
2023/03/07 23:41:35;;;;;;;29.67;13.02;;;2.40;94.80;;;;;;6244511;23;20028;-79